createdAt,value
2022-11-06T00:01:15.518Z,9.10
2022-11-06T00:03:43.655Z,9.10
2022-11-06T00:06:31.568Z,9.10
2022-11-06T00:09:04.382Z,9.10
2022-11-06T00:11:32.095Z,9.10
2022-11-06T00:14:01.067Z,9.10
2022-11-06T00:16:28.530Z,9.20
2022-11-06T00:18:55.948Z,9.20
2022-11-06T00:21:26.239Z,9.20
2022-11-06T00:23:54.862Z,9.10
2022-11-06T00:26:25.294Z,9.20
2022-11-06T00:28:53.671Z,9.20
2022-11-06T00:31:23.510Z,9.20
2022-11-06T00:33:51.643Z,9.20
2022-11-06T00:36:21.424Z,9.20
2022-11-06T00:38:53.162Z,9.20
2022-11-06T00:41:21.355Z,9.20
2022-11-06T00:43:55.024Z,9.20
2022-11-06T00:46:22.711Z,9.20
2022-11-06T00:48:50.224Z,9.20
2022-11-06T00:51:23.424Z,9.20
2022-11-06T00:53:57.242Z,9.20
2022-11-06T00:56:25.352Z,9.20
2022-11-06T00:58:53.582Z,9.20
2022-11-06T01:01:24.063Z,9.20
2022-11-06T01:04:00.480Z,9.30
2022-11-06T01:06:31.787Z,9.20
2022-11-06T01:08:59.539Z,9.30
2022-11-06T01:11:52.619Z,9.20
2022-11-06T01:14:22.121Z,9.30
2022-11-06T01:16:50.399Z,9.30
2022-11-06T01:19:19.902Z,9.30
2022-11-06T01:21:49.315Z,9.30
2022-11-06T01:24:23.354Z,9.30
2022-11-06T01:27:19.763Z,9.30
2022-11-06T01:29:38.711Z,9.30
2022-11-06T01:32:06.593Z,9.30
2022-11-06T01:34:34.342Z,9.20
2022-11-06T01:37:01.712Z,9.20
2022-11-06T01:39:29.117Z,9.20
2022-11-06T01:41:56.487Z,9.20
2022-11-06T01:44:35.970Z,9.20
2022-11-06T01:47:06.745Z,9.20
2022-11-06T01:49:38.197Z,9.20
2022-11-06T01:52:11.578Z,9.10
2022-11-06T01:54:41.701Z,9.10
2022-11-06T01:57:10.869Z,9.20
2022-11-06T01:59:41.900Z,9.20
2022-11-06T02:02:09.561Z,9.10
2022-11-06T02:04:40.845Z,9.20
2022-11-06T02:07:09.114Z,9.10
2022-11-06T02:09:36.963Z,9.10
2022-11-06T02:12:17.261Z,9.10
2022-11-06T02:14:59.761Z,9.10
2022-11-06T02:17:32.921Z,9.20
2022-11-06T02:20:27.709Z,9.20
2022-11-06T02:23:10.109Z,9.20
2022-11-06T02:25:49.639Z,9.10
2022-11-06T02:28:26.804Z,9.20
2022-11-06T02:30:58.307Z,9.10
2022-11-06T02:33:32.558Z,9.10
2022-11-06T02:36:07.437Z,9.00
2022-11-06T02:38:38.968Z,9.00
2022-11-06T02:41:12.599Z,9.00
2022-11-06T02:43:46.816Z,9.00
2022-11-06T02:46:20.482Z,9.00
2022-11-06T02:48:52.193Z,9.00
2022-11-06T02:51:25.495Z,8.90
2022-11-06T02:53:54.424Z,8.90
2022-11-06T02:56:26.321Z,8.90
2022-11-06T02:59:11.576Z,8.90
2022-11-06T03:01:56.480Z,8.90
2022-11-06T03:04:42.671Z,8.90
2022-11-06T03:07:29.263Z,8.90
2022-11-06T03:09:57.176Z,8.80
2022-11-06T03:12:40.115Z,8.80
2022-11-06T03:15:29.225Z,8.80
2022-11-06T03:18:17.650Z,8.80
2022-11-06T03:21:07.812Z,8.80
2022-11-06T03:23:48.563Z,8.80
2022-11-06T03:26:20.333Z,8.80
2022-11-06T03:28:52.575Z,8.70
2022-11-06T03:31:29.584Z,8.70
2022-11-06T03:34:03.857Z,8.70
2022-11-06T03:36:47.606Z,8.70
2022-11-06T03:39:21.251Z,8.70
2022-11-06T03:42:10.260Z,8.70
2022-11-06T03:44:43.042Z,8.70
2022-11-06T03:47:15.798Z,8.70
2022-11-06T03:49:49.641Z,8.70
2022-11-06T03:52:22.350Z,8.70
2022-11-06T03:55:01.597Z,8.70
2022-11-06T03:57:44.749Z,8.70
2022-11-06T04:00:12.921Z,8.70
2022-11-06T04:02:45.445Z,8.70
2022-11-06T04:05:38.320Z,8.70
2022-11-06T04:08:27.069Z,8.60
2022-11-06T04:11:16.675Z,8.60
2022-11-06T04:13:57.799Z,8.60
2022-11-06T04:16:27.516Z,8.60
2022-11-06T04:18:54.895Z,8.50
2022-11-06T04:21:26.864Z,8.50
2022-11-06T04:24:34.352Z,8.50
2022-11-06T04:27:28.767Z,8.60
2022-11-06T04:30:08.771Z,8.60
2022-11-06T04:32:41.878Z,8.60
2022-11-06T04:35:21.037Z,8.50
2022-11-06T04:37:54.398Z,8.60
2022-11-06T04:44:03.970Z,8.60
2022-11-06T04:46:36.986Z,8.60
2022-11-06T04:49:06.997Z,8.60
2022-11-06T04:51:38.262Z,8.60
2022-11-06T04:54:09.288Z,8.60
2022-11-06T04:56:41.483Z,8.50
2022-11-06T04:59:16.177Z,8.60
2022-11-06T05:01:44.488Z,8.60
2022-11-06T05:04:12.317Z,8.50
2022-11-06T05:06:39.751Z,8.50
2022-11-06T05:09:07.131Z,8.50
2022-11-06T05:11:34.486Z,8.50
2022-11-06T05:14:01.925Z,8.50
2022-11-06T05:16:29.269Z,8.60
2022-11-06T05:18:56.775Z,8.60
2022-11-06T05:21:42.716Z,8.50
2022-11-06T05:24:10.594Z,8.50
2022-11-06T05:26:38.119Z,8.50
2022-11-06T05:29:05.537Z,8.40
2022-11-06T05:31:33.127Z,8.40
2022-11-06T05:34:00.514Z,8.40
2022-11-06T05:36:27.866Z,8.30
2022-11-06T05:38:55.211Z,8.30
2022-11-06T05:41:22.607Z,8.30
2022-11-06T05:43:50.042Z,8.30
2022-11-06T05:46:46.446Z,8.40
2022-11-06T05:49:04.736Z,8.40
2022-11-06T05:51:32.160Z,8.40
2022-11-06T05:53:59.568Z,8.40
2022-11-06T05:56:26.916Z,8.30
2022-11-06T05:58:54.286Z,8.30
2022-11-06T06:01:21.778Z,8.30
2022-11-06T06:03:49.251Z,8.30
2022-11-06T06:06:16.899Z,8.30
2022-11-06T06:08:44.203Z,8.20
2022-11-06T06:11:11.571Z,8.20
2022-11-06T06:13:38.958Z,8.20
2022-11-06T06:16:07.130Z,8.20
2022-11-06T06:18:34.541Z,8.20
2022-11-06T06:21:02.008Z,8.20
2022-11-06T06:23:29.385Z,8.20
2022-11-06T06:25:57.771Z,8.20
2022-11-06T06:28:25.125Z,8.20
2022-11-06T06:30:54.832Z,8.20
2022-11-06T06:33:26.016Z,8.20
2022-11-06T06:35:53.347Z,8.20
2022-11-06T06:38:20.776Z,8.20
2022-11-06T06:40:48.165Z,8.30
2022-11-06T06:43:15.529Z,8.30
2022-11-06T06:45:43.188Z,8.30
2022-11-06T06:48:10.976Z,8.30
2022-11-06T06:50:38.647Z,8.30
2022-11-06T06:53:06.030Z,8.30
2022-11-06T06:55:33.437Z,8.20
2022-11-06T06:58:02.159Z,8.20
2022-11-06T07:00:30.100Z,8.20
2022-11-06T07:02:57.615Z,8.30
2022-11-06T07:05:25.355Z,8.20
2022-11-06T07:07:52.730Z,8.30
2022-11-06T07:10:20.146Z,8.40
2022-11-06T07:12:47.606Z,8.40
2022-11-06T07:15:15.369Z,8.50
2022-11-06T07:17:42.773Z,8.50
2022-11-06T07:20:10.903Z,8.60
2022-11-06T07:22:38.348Z,8.50
2022-11-06T07:25:06.741Z,8.50
2022-11-06T07:27:34.177Z,8.50
2022-11-06T07:30:01.788Z,8.60
2022-11-06T07:32:29.692Z,8.60
2022-11-06T07:34:57.415Z,8.50
2022-11-06T07:37:24.747Z,8.60
2022-11-06T07:39:52.180Z,8.60
2022-11-06T07:42:19.691Z,8.60
2022-11-06T07:44:47.136Z,8.60
2022-11-06T07:47:14.440Z,8.60
2022-11-06T07:49:44.528Z,8.60
2022-11-06T07:52:15.598Z,8.50
2022-11-06T07:54:42.942Z,8.50
2022-11-06T07:57:10.308Z,8.50
2022-11-06T07:59:37.621Z,8.50
2022-11-06T08:02:05.177Z,8.50
2022-11-06T08:04:32.645Z,8.50
2022-11-06T08:07:00.083Z,8.60
2022-11-06T08:09:27.540Z,8.60
2022-11-06T08:11:54.932Z,8.60
2022-11-06T08:14:22.420Z,8.70
2022-11-06T08:16:49.839Z,8.70
2022-11-06T08:19:17.307Z,8.70
2022-11-06T08:21:44.682Z,8.60
2022-11-06T08:24:13.677Z,8.70
2022-11-06T08:26:42.835Z,8.70
2022-11-06T08:29:10.208Z,8.70
2022-11-06T08:31:37.684Z,8.70
2022-11-06T08:34:05.424Z,8.80
2022-11-06T08:36:38.483Z,8.90
2022-11-06T08:39:06.030Z,8.90
2022-11-06T08:41:33.515Z,8.90
2022-11-06T08:44:00.914Z,8.90
2022-11-06T08:46:28.298Z,8.90
2022-11-06T08:48:55.750Z,9.00
2022-11-06T08:51:23.213Z,9.10
2022-11-06T08:53:50.973Z,9.00
2022-11-06T08:56:18.532Z,9.10
2022-11-06T08:58:46.762Z,9.00
2022-11-06T09:01:15.023Z,9.00
2022-11-06T09:03:42.434Z,9.10
2022-11-06T09:06:09.873Z,9.10
2022-11-06T09:08:37.227Z,9.10
2022-11-06T09:11:07.953Z,9.10
2022-11-06T09:13:35.313Z,9.10
2022-11-06T09:16:02.726Z,9.10
2022-11-06T09:18:30.228Z,9.10
2022-11-06T09:20:57.875Z,9.10
2022-11-06T09:23:25.630Z,9.10
2022-11-06T09:25:53.043Z,9.20
2022-11-06T09:28:20.388Z,9.20
2022-11-06T09:30:47.765Z,9.20
2022-11-06T09:33:15.559Z,9.30
2022-11-06T09:35:43.458Z,9.30
2022-11-06T09:38:12.838Z,9.30
2022-11-06T09:40:46.965Z,9.30
2022-11-06T09:44:08.974Z,9.30
2022-11-06T09:46:42.724Z,9.30
2022-11-06T09:49:37.686Z,9.30
2022-11-06T09:52:28.454Z,9.40
2022-11-06T09:55:00.133Z,9.40
2022-11-06T09:57:54.035Z,9.50
2022-11-06T10:00:22.032Z,9.50
2022-11-06T10:03:16.452Z,9.50
2022-11-06T10:05:46.823Z,9.50
2022-11-06T10:08:25.015Z,9.50
2022-11-06T10:10:52.348Z,9.60
2022-11-06T10:13:38.375Z,9.60
2022-11-06T10:16:17.515Z,9.70
2022-11-06T10:19:06.514Z,9.70
2022-11-06T10:21:51.884Z,9.70
2022-11-06T10:24:34.169Z,9.70
2022-11-06T10:27:11.557Z,9.80
2022-11-06T10:30:03.483Z,9.70
2022-11-06T10:33:03.357Z,9.80
2022-11-06T10:35:39.914Z,9.80
2022-11-06T10:38:15.135Z,9.80
2022-11-06T10:40:49.292Z,9.70
2022-11-06T10:43:36.408Z,9.80
2022-11-06T10:46:41.158Z,9.80
2022-11-06T10:49:45.610Z,9.80
2022-11-06T10:52:37.140Z,9.80
2022-11-06T10:55:34.924Z,9.80
2022-11-06T10:58:21.270Z,9.90
2022-11-06T11:00:50.479Z,9.90
2022-11-06T11:03:29.630Z,9.90
2022-11-06T11:05:56.990Z,9.90
2022-11-06T11:08:35.943Z,9.90
2022-11-06T11:11:15.999Z,10.00
2022-11-06T11:13:46.352Z,10.00
2022-11-06T11:16:18.527Z,10.10
2022-11-06T11:18:49.281Z,10.20
2022-11-06T11:21:19.347Z,10.20
2022-11-06T11:24:11.297Z,10.10
2022-11-06T11:26:44.051Z,10.10
2022-11-06T11:29:17.718Z,10.10
2022-11-06T11:31:50.031Z,10.10
2022-11-06T11:34:22.787Z,10.20
2022-11-06T11:37:03.662Z,10.10
2022-11-06T11:39:41.036Z,10.00
2022-11-06T11:42:24.704Z,10.10
2022-11-06T11:45:17.441Z,10.10
2022-11-06T11:47:48.041Z,10.10
2022-11-06T11:50:32.115Z,10.10
2022-11-06T11:53:18.998Z,10.00
2022-11-06T11:55:49.365Z,10.00
2022-11-06T11:58:26.732Z,10.00
2022-11-06T12:01:07.620Z,10.10
2022-11-06T12:03:42.544Z,10.10
2022-11-06T12:06:13.396Z,10.00
2022-11-06T12:08:50.305Z,10.10
2022-11-06T12:11:26.061Z,10.10
2022-11-06T12:14:27.337Z,10.10
2022-11-06T12:17:11.899Z,10.10
2022-11-06T12:19:42.066Z,10.10
2022-11-06T12:22:22.196Z,10.20
2022-11-06T12:24:54.736Z,10.20
2022-11-06T12:27:33.565Z,10.20
2022-11-06T12:30:07.874Z,10.20
2022-11-06T12:33:16.485Z,10.20
2022-11-06T12:35:52.717Z,10.20
2022-11-06T12:38:37.942Z,10.10
2022-11-06T12:41:28.328Z,10.10
2022-11-06T12:43:57.135Z,10.10
2022-11-06T12:46:59.804Z,10.10
2022-11-06T12:49:39.286Z,10.10
2022-11-06T12:52:24.455Z,10.00
2022-11-06T12:55:05.353Z,10.00
2022-11-06T12:57:50.760Z,10.00
2022-11-06T13:00:31.303Z,10.00
2022-11-06T13:03:16.924Z,10.00
2022-11-06T13:06:00.822Z,10.10
2022-11-06T13:08:46.964Z,10.20
2022-11-06T13:11:29.849Z,10.10
2022-11-06T13:14:02.983Z,10.20
2022-11-06T13:17:01.056Z,10.10
2022-11-06T13:19:38.707Z,10.20
2022-11-06T13:22:30.227Z,10.10
2022-11-06T13:25:12.518Z,10.10
2022-11-06T13:27:53.132Z,10.00
2022-11-06T13:30:23.211Z,10.00
2022-11-06T13:33:15.353Z,10.10
2022-11-06T13:35:45.040Z,10.10
2022-11-06T13:38:27.401Z,10.10
2022-11-06T13:41:05.438Z,10.10
2022-11-06T13:43:41.517Z,10.10
2022-11-06T13:46:20.609Z,10.10
2022-11-06T13:48:57.193Z,10.10
2022-11-06T13:51:59.855Z,10.10
2022-11-06T13:54:58.019Z,10.10
2022-11-06T13:57:54.297Z,10.10
2022-11-06T14:00:51.116Z,10.10
2022-11-06T14:03:51.286Z,10.10
2022-11-06T14:06:23.982Z,10.10
2022-11-06T14:08:54.849Z,10.10
2022-11-06T14:11:34.945Z,10.20
2022-11-06T14:14:14.264Z,10.10
2022-11-06T14:16:45.792Z,10.10
2022-11-06T14:19:23.598Z,10.10
2022-11-06T14:21:53.189Z,10.10
2022-11-06T14:24:30.756Z,10.10
2022-11-06T14:26:59.879Z,10.00
2022-11-06T14:29:27.402Z,10.00
2022-11-06T14:32:13.202Z,10.00
2022-11-06T14:34:42.879Z,9.90
2022-11-06T14:37:19.750Z,9.90
2022-11-06T14:39:56.613Z,9.90
2022-11-06T14:42:26.938Z,9.90
2022-11-06T14:45:22.327Z,9.90
2022-11-06T14:47:54.497Z,9.80
2022-11-06T14:50:40.036Z,9.70
2022-11-06T14:53:23.476Z,9.70
2022-11-06T14:56:06.393Z,9.70
2022-11-06T14:58:37.863Z,9.60
2022-11-06T15:01:10.926Z,9.60
2022-11-06T15:03:41.153Z,9.60
2022-11-06T15:06:28.467Z,9.60
2022-11-06T15:08:59.104Z,9.60
2022-11-06T15:11:35.082Z,9.60
2022-11-06T15:14:09.016Z,9.60
2022-11-06T15:16:49.764Z,9.60
2022-11-06T15:19:17.106Z,9.60
2022-11-06T15:22:07.063Z,9.60
2022-11-06T15:24:56.986Z,9.60
2022-11-06T15:27:30.597Z,9.70
2022-11-06T15:30:01.933Z,9.70
2022-11-06T15:32:35.534Z,9.70
2022-11-06T15:35:27.716Z,9.70
2022-11-06T15:38:03.511Z,9.70
2022-11-06T15:40:35.818Z,9.70
2022-11-06T15:43:22.233Z,9.70
2022-11-06T15:46:06.998Z,9.80
2022-11-06T15:48:35.135Z,9.70
2022-11-06T15:51:02.945Z,9.70
2022-11-06T15:53:30.963Z,9.70
2022-11-06T15:56:08.835Z,9.70
2022-11-06T15:58:37.964Z,9.70
2022-11-06T16:01:07.863Z,9.70
2022-11-06T16:03:49.555Z,9.70
2022-11-06T16:06:17.651Z,9.70
2022-11-06T16:08:45.661Z,9.80
2022-11-06T16:11:18.018Z,9.80
2022-11-06T16:13:46.777Z,9.70
2022-11-06T16:16:39.552Z,9.70
2022-11-06T16:19:20.230Z,9.70
2022-11-06T16:21:58.592Z,9.80
2022-11-06T16:24:29.416Z,9.80
2022-11-06T16:26:56.946Z,9.80
2022-11-06T16:29:28.032Z,9.80
2022-11-06T16:32:06.547Z,9.80
2022-11-06T16:34:37.583Z,9.80
2022-11-06T16:37:06.271Z,9.70
2022-11-06T16:39:52.632Z,9.70
2022-11-06T16:42:23.105Z,9.70
2022-11-06T16:45:10.885Z,9.60
2022-11-06T16:47:38.280Z,9.60
2022-11-06T16:50:44.018Z,9.60
2022-11-06T16:53:11.997Z,9.60
2022-11-06T16:55:41.637Z,9.60
2022-11-06T16:58:16.187Z,9.60
2022-11-06T17:00:43.863Z,9.60
2022-11-06T17:03:21.478Z,9.60
2022-11-06T17:05:54.860Z,9.60
2022-11-06T17:08:41.833Z,9.60
2022-11-06T17:11:21.919Z,9.50
2022-11-06T17:13:50.878Z,9.40
2022-11-06T17:16:20.758Z,9.40
2022-11-06T17:18:48.642Z,9.50
2022-11-06T17:21:22.350Z,9.50
2022-11-06T17:23:50.982Z,9.40
2022-11-06T17:26:24.317Z,9.50
2022-11-06T17:28:52.344Z,9.40
2022-11-06T17:31:21.369Z,9.50
2022-11-06T17:33:49.071Z,9.50
2022-11-06T17:36:25.470Z,9.50
2022-11-06T17:38:54.747Z,9.50
2022-11-06T17:41:32.613Z,9.50
2022-11-06T17:44:12.418Z,9.50
2022-11-06T17:46:45.510Z,9.40
2022-11-06T17:49:17.907Z,9.40
2022-11-06T17:52:00.565Z,9.50
2022-11-06T17:54:32.613Z,9.50
2022-11-06T17:57:02.332Z,9.50
2022-11-06T17:59:30.142Z,9.50
2022-11-06T18:01:57.932Z,9.50
2022-11-06T18:04:27.178Z,9.50
2022-11-06T18:06:55.111Z,9.50
2022-11-06T18:09:23.308Z,9.50
2022-11-06T18:11:52.660Z,9.50
2022-11-06T18:14:21.473Z,9.50
2022-11-06T18:16:49.259Z,9.50
2022-11-06T18:19:19.920Z,9.50
2022-11-06T18:21:47.760Z,9.50
2022-11-06T18:24:15.335Z,9.50
2022-11-06T18:26:42.763Z,9.50
2022-11-06T18:29:11.652Z,9.50
2022-11-06T18:31:39.727Z,9.50
2022-11-06T18:34:07.909Z,9.50
2022-11-06T18:36:36.875Z,9.40
2022-11-06T18:39:05.326Z,9.50
2022-11-06T18:41:34.690Z,9.50
2022-11-06T18:44:02.280Z,9.50
2022-11-06T18:46:30.383Z,9.50
2022-11-06T18:48:58.425Z,9.50
2022-11-06T18:51:35.634Z,9.50
2022-11-06T18:54:06.960Z,9.50
2022-11-06T18:56:39.040Z,9.50
2022-11-06T18:59:11.679Z,9.50
2022-11-06T19:01:39.191Z,9.40
2022-11-06T19:04:06.849Z,9.40
2022-11-06T19:06:34.435Z,9.40
2022-11-06T19:09:01.891Z,9.40
2022-11-06T19:11:29.210Z,9.40
2022-11-06T19:13:56.526Z,9.30
2022-11-06T19:16:23.952Z,9.30
2022-11-06T19:21:30.686Z,9.20
2022-11-06T19:24:03.917Z,9.20
2022-11-06T19:26:33.591Z,9.20
2022-11-06T19:29:01.402Z,9.30
2022-11-06T19:31:30.213Z,9.30
2022-11-06T19:33:59.083Z,9.30
2022-11-06T19:36:27.221Z,9.30
2022-11-06T19:38:54.927Z,9.30
2022-11-06T19:41:22.366Z,9.30
2022-11-06T19:43:49.730Z,9.40
2022-11-06T19:46:25.667Z,9.40
2022-11-06T19:48:55.996Z,9.40
2022-11-06T19:51:23.404Z,9.30
2022-11-06T19:53:54.431Z,9.30
2022-11-06T19:56:22.588Z,9.30
2022-11-06T19:58:50.866Z,9.30
2022-11-06T20:01:20.713Z,9.40
2022-11-06T20:03:48.317Z,9.30
2022-11-06T20:06:16.407Z,9.30
2022-11-06T20:08:47.354Z,9.20
2022-11-06T20:11:15.312Z,9.10
2022-11-06T20:13:44.945Z,9.10
2022-11-06T20:16:15.507Z,9.10
2022-11-06T20:18:44.127Z,9.00
2022-11-06T20:21:12.857Z,8.90
2022-11-06T20:23:40.346Z,8.90
2022-11-06T20:26:07.755Z,8.90
2022-11-06T20:28:35.700Z,8.90
2022-11-06T20:31:11.868Z,8.90
2022-11-06T20:33:40.049Z,8.90
2022-11-06T20:36:23.208Z,8.80
2022-11-06T20:38:55.083Z,8.70
2022-11-06T20:41:22.835Z,8.70
2022-11-06T20:43:51.309Z,8.70
2022-11-06T20:46:20.493Z,8.70
2022-11-06T20:48:48.409Z,8.70
2022-11-06T20:51:19.115Z,8.70
2022-11-06T20:53:47.248Z,8.70
2022-11-06T20:56:16.930Z,8.80
2022-11-06T20:58:45.304Z,8.70
2022-11-06T21:01:20.107Z,8.80
2022-11-06T21:03:50.016Z,8.80
2022-11-06T21:06:19.438Z,8.90
2022-11-06T21:08:47.184Z,9.00
2022-11-06T21:11:22.874Z,8.90
2022-11-06T21:13:52.216Z,8.80
2022-11-06T21:16:23.036Z,8.80
2022-11-06T21:18:51.126Z,8.80
2022-11-06T21:21:24.534Z,8.80
2022-11-06T21:23:53.130Z,8.80
2022-11-06T21:26:24.372Z,8.70
2022-11-06T21:28:52.202Z,8.60
2022-11-06T21:31:22.655Z,8.60
2022-11-06T21:33:52.251Z,8.60
2022-11-06T21:36:25.734Z,8.60
2022-11-06T21:38:53.977Z,8.60
2022-11-06T21:41:24.565Z,8.70
2022-11-06T21:43:51.967Z,8.70
2022-11-06T21:46:21.146Z,8.70
2022-11-06T21:48:50.196Z,8.60
2022-11-06T21:51:30.016Z,8.60
2022-11-06T21:54:16.458Z,8.60
2022-11-06T21:56:44.628Z,8.60
2022-11-06T21:59:14.825Z,8.60
2022-11-06T22:01:43.238Z,8.60
2022-11-06T22:04:11.510Z,8.60
2022-11-06T22:06:42.984Z,8.60
2022-11-06T22:09:13.163Z,8.60
2022-11-06T22:11:43.322Z,8.60
2022-11-06T22:14:14.531Z,8.60
2022-11-06T22:16:43.534Z,8.60
2022-11-06T22:19:12.323Z,8.60
2022-11-06T22:21:40.928Z,8.50
2022-11-06T22:24:10.620Z,8.60
2022-11-06T22:26:38.307Z,8.60
2022-11-06T22:29:08.951Z,8.60
2022-11-06T22:31:36.511Z,8.60
2022-11-06T22:34:04.387Z,8.70
2022-11-06T22:36:31.945Z,8.70
2022-11-06T22:39:00.840Z,8.70
2022-11-06T22:41:28.282Z,8.70
2022-11-06T22:43:59.275Z,8.70
2022-11-06T22:46:27.203Z,8.70
2022-11-06T22:48:54.677Z,8.80
2022-11-06T22:51:25.388Z,8.70
2022-11-06T22:53:53.039Z,8.70
2022-11-06T22:56:22.913Z,8.70
2022-11-06T22:59:04.120Z,8.70
2022-11-06T23:01:34.946Z,8.60
2022-11-06T23:04:08.898Z,8.60
2022-11-06T23:06:36.333Z,8.60
2022-11-06T23:09:03.810Z,8.60
2022-11-06T23:11:31.830Z,8.60
2022-11-06T23:14:06.008Z,8.70
2022-11-06T23:16:54.464Z,8.60
2022-11-06T23:19:21.911Z,8.70
2022-11-06T23:21:49.338Z,8.60
2022-11-06T23:24:16.828Z,8.70
2022-11-06T23:26:44.753Z,8.70
2022-11-06T23:29:12.595Z,8.70
2022-11-06T23:31:41.328Z,8.70
2022-11-06T23:34:08.878Z,8.70
2022-11-06T23:36:36.272Z,8.70
2022-11-06T23:39:03.727Z,8.70
2022-11-06T23:41:43.052Z,8.80
2022-11-06T23:44:30.521Z,8.80
2022-11-06T23:46:58.450Z,8.70
2022-11-06T23:49:25.856Z,8.80
2022-11-06T23:51:53.708Z,8.70
2022-11-06T23:54:21.400Z,8.80
2022-11-06T23:56:48.823Z,8.80
2022-11-06T23:59:16.331Z,8.70
